Time;durP1;ratioP1;P1;durP2;ratioP2;P2;SDS_P1;SDS_P2;PMS_P1;PMS_P2;Temp;Humidity;BMP_temperature;BMP_pressure;BME280_temperature;BME280_humidity;BME280_pressure;Samples;Min_cycle;Max_cycle;Signal;HPM_P1;HPM_P2
2021/04/03 00:01:07;;;;;;;9.80;8.25;;;11.50;99.90;;;;;;5093429;28;20024;-77
2021/04/03 00:03:33;;;;;;;8.95;7.55;;;11.70;99.90;;;;;;5093161;28;20060;-77
2021/04/03 00:05:59;;;;;;;8.93;7.72;;;11.40;99.90;;;;;;5093311;28;20028;-77
2021/04/03 00:08:26;;;;;;;12.15;8.35;;;11.70;99.90;;;;;;5092886;28;20024;-77
2021/04/03 00:10:53;;;;;;;8.93;8.02;;;11.30;99.90;;;;;;5093209;28;20028;-77
2021/04/03 00:13:20;;;;;;;9.15;8.25;;;11.40;99.90;;;;;;5100717;28;20020;-77
2021/04/03 00:15:47;;;;;;;10.88;7.97;;;11.40;99.90;;;;;;5113433;28;20475;-77
2021/04/03 00:18:14;;;;;;;9.45;8.35;;;11.40;99.90;;;;;;5113333;28;20020;-77
2021/04/03 00:20:40;;;;;;;10.02;8.32;;;11.50;99.90;;;;;;5112966;28;20449;-77
2021/04/03 00:23:06;;;;;;;10.73;8.63;;;11.40;99.90;;;;;;5096129;27;20024;-78
2021/04/03 00:25:33;;;;;;;10.65;8.95;;;11.50;99.90;;;;;;5092978;28;20032;-78
2021/04/03 00:27:59;;;;;;;9.85;8.82;;;11.20;99.90;;;;;;5092986;28;20040;-78
2021/04/03 00:30:25;;;;;;;9.63;8.63;;;11.60;99.90;;;;;;5092836;28;20472;-78
2021/04/03 00:32:53;;;;;;;10.25;8.32;;;11.30;99.90;;;;;;5092803;28;20069;-78
2021/04/03 00:35:27;;;;;;;9.43;8.35;;;11.40;99.90;;;;;;5091865;28;20051;-78
2021/04/03 00:37:53;;;;;;;12.63;9.57;;;11.30;99.90;;;;;;5092053;28;20024;-78
2021/04/03 00:40:19;;;;;;;11.77;8.65;;;11.20;99.90;;;;;;5089029;28;20024;-78
2021/04/03 00:42:46;;;;;;;10.18;8.70;;;11.70;99.90;;;;;;5092561;28;20388;-78
2021/04/03 00:45:15;;;;;;;10.57;8.88;;;11.60;99.90;;;;;;5092025;28;20028;-78
2021/04/03 00:47:42;;;;;;;10.80;8.40;;;11.40;99.90;;;;;;5091752;28;20128;-78
2021/04/03 00:50:14;;;;;;;9.48;8.15;;;11.70;99.90;;;;;;5092287;28;20032;-78
2021/04/03 00:52:40;;;;;;;10.60;8.10;;;11.10;99.90;;;;;;5092496;28;20024;-78
2021/04/03 00:55:09;;;;;;;10.57;8.30;;;11.10;99.90;;;;;;5092660;28;20020;-78
2021/04/03 00:57:35;;;;;;;11.27;8.70;;;11.10;99.90;;;;;;5105596;28;20008;-78
2021/04/03 01:00:03;;;;;;;12.50;8.23;;;11.30;99.90;;;;;;5112886;28;20028;-78
2021/04/03 01:02:29;;;;;;;9.55;8.30;;;10.90;99.90;;;;;;5112712;28;20016;-78
2021/04/03 01:04:54;;;;;;;9.75;8.18;;;11.00;99.90;;;;;;5112590;28;20050;-78
2021/04/03 01:07:20;;;;;;;10.45;8.60;;;10.80;99.90;;;;;;5112700;28;20027;-78
2021/04/03 01:09:45;;;;;;;11.85;8.95;;;11.00;99.90;;;;;;5112679;28;20030;-78
2021/04/03 01:12:52;;;;;;;10.75;8.70;;;10.80;99.90;;;;;;5112078;28;20042;-78
2021/04/03 01:15:33;;;;;;;11.00;8.55;;;10.80;99.90;;;;;;5112677;28;20031;-78
2021/04/03 01:18:09;;;;;;;11.38;8.57;;;10.90;99.90;;;;;;5112580;28;20028;-78
2021/04/03 01:20:58;;;;;;;11.15;9.13;;;10.50;99.90;;;;;;5098281;28;20048;-77
2021/04/03 01:23:49;;;;;;;11.05;9.05;;;10.60;99.90;;;;;;5090787;28;20055;-77
2021/04/03 01:26:52;;;;;;;10.20;8.40;;;10.50;99.90;;;;;;5092282;28;20112;-77
2021/04/03 01:29:41;;;;;;;12.27;8.93;;;10.60;99.90;;;;;;5071800;28;20477;-77
2021/04/03 01:32:08;;;;;;;11.48;9.20;;;10.50;99.90;;;;;;5072039;28;20025;-77
2021/04/03 01:34:37;;;;;;;13.52;9.05;;;10.90;99.90;;;;;;5072200;28;20036;-77
2021/04/03 01:37:07;;;;;;;13.48;9.35;;;10.40;99.90;;;;;;5092191;28;20023;-77
2021/04/03 01:39:36;;;;;;;12.45;9.30;;;10.30;99.90;;;;;;5092050;28;20024;-77
2021/04/03 01:42:09;;;;;;;10.52;9.15;;;10.30;99.90;;;;;;5092250;28;20051;-78
2021/04/03 01:44:41;;;;;;;12.57;9.95;;;10.10;99.90;;;;;;5090671;28;20404;-78
2021/04/03 01:47:07;;;;;;;10.30;8.88;;;10.20;99.90;;;;;;5092103;28;20024;-78
2021/04/03 01:49:35;;;;;;;11.18;9.05;;;10.30;99.90;;;;;;5091742;28;20091;-78
2021/04/03 01:52:01;;;;;;;12.98;9.32;;;10.70;99.90;;;;;;5094731;28;20024;-78
2021/04/03 01:54:29;;;;;;;11.15;9.40;;;10.40;99.90;;;;;;5094300;28;20380;-78
2021/04/03 01:56:57;;;;;;;10.93;9.40;;;10.60;99.90;;;;;;5095955;28;20020;-78
2021/04/03 01:59:24;;;;;;;12.13;9.80;;;10.10;99.90;;;;;;5095590;28;20020;-78
2021/04/03 02:01:54;;;;;;;11.18;9.25;;;10.20;99.90;;;;;;5095291;28;20016;-78
2021/04/03 02:04:21;;;;;;;12.73;9.27;;;10.10;99.90;;;;;;5094925;28;20024;-78
2021/04/03 02:06:47;;;;;;;13.02;8.73;;;10.20;99.90;;;;;;5094131;28;20511;-77
2021/04/03 02:09:15;;;;;;;11.45;9.82;;;10.10;99.90;;;;;;5095669;28;20031;-77
2021/04/03 02:11:47;;;;;;;13.75;9.57;;;10.10;99.90;;;;;;5095473;28;20043;-77
2021/04/03 02:14:14;;;;;;;13.40;10.05;;;10.00;99.90;;;;;;5095530;28;20031;-77
2021/04/03 02:16:41;;;;;;;11.13;9.65;;;10.20;99.90;;;;;;5094910;28;20031;-78
2021/04/03 02:19:11;;;;;;;13.25;9.52;;;10.00;99.90;;;;;;5100071;28;20015;-77
2021/04/03 02:21:38;;;;;;;10.25;9.18;;;10.00;99.90;;;;;;5111392;28;20499;-77
2021/04/03 02:24:05;;;;;;;11.35;9.50;;;10.00;99.90;;;;;;5093802;28;20483;-77
2021/04/03 02:26:35;;;;;;;10.50;9.40;;;10.00;99.90;;;;;;5095066;28;20028;-78
2021/04/03 02:29:05;;;;;;;11.32;9.25;;;10.00;99.90;;;;;;5095182;28;20395;-78
2021/04/03 02:31:33;;;;;;;12.27;9.25;;;9.90;99.90;;;;;;5094642;28;20077;-78
2021/04/03 02:33:59;;;;;;;11.73;9.40;;;10.00;99.90;;;;;;5095120;28;20036;-77
2021/04/03 02:36:24;;;;;;;10.98;9.40;;;10.20;99.90;;;;;;5093696;28;20361;-77
2021/04/03 02:38:51;;;;;;;14.63;10.30;;;10.00;99.90;;;;;;5095070;28;20024;-77
2021/04/03 02:41:24;;;;;;;12.13;9.20;;;9.90;99.90;;;;;;5094671;28;20161;-77
2021/04/03 02:44:00;;;;;;;10.73;9.43;;;9.90;99.90;;;;;;5094734;28;20480;-78
2021/04/03 02:46:48;;;;;;;13.75;9.45;;;9.90;99.90;;;;;;5094577;28;20028;-78
2021/04/03 02:49:21;;;;;;;10.48;9.32;;;9.80;99.90;;;;;;5104634;28;20391;-78
2021/04/03 02:51:49;;;;;;;11.48;9.60;;;9.90;99.90;;;;;;5114840;28;20039;-77
2021/04/03 02:54:17;;;;;;;12.75;9.80;;;9.70;99.90;;;;;;5115005;28;20023;-78
2021/04/03 02:56:44;;;;;;;10.98;9.27;;;9.60;99.90;;;;;;5115001;28;20022;-78
2021/04/03 02:59:19;;;;;;;13.32;10.07;;;9.80;99.90;;;;;;5114748;28;20503;-78
2021/04/03 03:01:48;;;;;;;12.73;10.18;;;9.60;99.90;;;;;;5114224;28;20160;-78
2021/04/03 03:04:16;;;;;;;11.40;9.93;;;9.40;99.90;;;;;;5101629;28;20396;-78
2021/04/03 03:06:43;;;;;;;11.27;10.07;;;10.00;99.90;;;;;;5094154;28;20400;-78
2021/04/03 03:09:09;;;;;;;12.98;9.77;;;9.80;99.90;;;;;;5094352;28;20039;-77
2021/04/03 03:11:37;;;;;;;10.98;9.13;;;9.80;99.90;;;;;;5094137;28;20056;-77
2021/04/03 03:14:04;;;;;;;13.07;10.10;;;9.60;99.90;;;;;;5094187;28;20027;-77
2021/04/03 03:16:30;;;;;;;12.45;10.15;;;9.50;99.90;;;;;;5093876;28;20392;-77
2021/04/03 03:18:56;;;;;;;11.43;9.63;;;9.40;99.90;;;;;;5110953;28;20057;-77
2021/04/03 03:21:22;;;;;;;13.10;10.35;;;9.70;99.90;;;;;;5112280;28;20071;-77
2021/04/03 03:23:48;;;;;;;12.98;9.95;;;9.50;99.90;;;;;;5093902;28;20028;-77
2021/04/03 03:26:14;;;;;;;11.15;9.38;;;9.90;99.90;;;;;;5094070;28;20030;-77
2021/04/03 03:28:40;;;;;;;11.45;10.27;;;9.50;99.90;;;;;;5092557;28;20467;-77
2021/04/03 03:31:06;;;;;;;11.95;9.32;;;9.80;99.90;;;;;;5093640;28;20249;-77
2021/04/03 03:33:32;;;;;;;12.23;9.45;;;9.60;99.90;;;;;;5093778;28;20024;-77
2021/04/03 03:35:58;;;;;;;12.13;9.95;;;9.70;99.90;;;;;;5093682;28;20122;-77
2021/04/03 03:38:24;;;;;;;12.65;9.95;;;9.50;99.90;;;;;;5093780;28;20024;-78
2021/04/03 03:40:54;;;;;;;11.18;9.68;;;9.40;99.90;;;;;;5093745;28;20018;-78
2021/04/03 03:43:20;;;;;;;12.35;9.75;;;9.60;99.90;;;;;;5093696;28;20027;-78
2021/04/03 03:45:46;;;;;;;11.75;9.57;;;9.50;99.90;;;;;;5091882;28;20032;-78
2021/04/03 03:48:12;;;;;;;13.63;10.32;;;9.60;99.90;;;;;;5107489;28;20058;-78
2021/04/03 03:50:38;;;;;;;12.32;9.80;;;9.10;99.90;;;;;;5113874;28;20055;-78
2021/04/03 03:53:03;;;;;;;16.40;10.60;;;9.10;99.90;;;;;;5113824;28;20088;-77
2021/04/03 03:55:30;;;;;;;12.13;9.90;;;9.50;99.90;;;;;;5109753;28;20012;-77
2021/04/03 03:57:56;;;;;;;14.30;10.02;;;9.60;99.90;;;;;;5093470;28;20016;-77
2021/04/03 04:00:22;;;;;;;12.07;10.05;;;9.00;99.90;;;;;;5091529;28;20023;-77
2021/04/03 04:02:47;;;;;;;13.65;10.30;;;8.90;99.90;;;;;;5109448;28;20028;-78
2021/04/03 04:05:13;;;;;;;11.25;9.57;;;9.00;99.90;;;;;;5112156;28;20024;-78
2021/04/03 04:07:39;;;;;;;11.63;9.82;;;9.00;99.90;;;;;;5113046;28;20020;-78
2021/04/03 04:10:07;;;;;;;10.73;9.63;;;9.40;99.90;;;;;;5113292;28;20042;-78
2021/04/03 04:12:33;;;;;;;13.77;10.13;;;8.70;99.90;;;;;;5113154;28;20506;-77
2021/04/03 04:14:59;;;;;;;12.50;10.20;;;8.80;99.90;;;;;;5112797;28;20242;-77
2021/04/03 04:17:24;;;;;;;15.05;10.43;;;8.70;99.90;;;;;;5113310;28;20590;-77
2021/04/03 04:19:50;;;;;;;12.95;10.52;;;8.70;99.90;;;;;;5113090;28;20040;-77
2021/04/03 04:22:16;;;;;;;14.98;10.20;;;8.60;99.90;;;;;;5103761;28;20509;-78
2021/04/03 04:24:41;;;;;;;12.10;10.38;;;8.90;99.90;;;;;;5092961;28;20028;-78
2021/04/03 04:27:07;;;;;;;14.15;11.05;;;8.50;99.90;;;;;;5091568;28;20028;-77
2021/04/03 04:29:33;;;;;;;14.55;11.50;;;8.60;99.90;;;;;;5097271;28;20391;-77
2021/04/03 04:32:04;;;;;;;14.20;10.25;;;8.60;99.90;;;;;;5095878;28;20028;-77
2021/04/03 04:34:29;;;;;;;13.18;11.02;;;8.60;99.90;;;;;;5112491;28;20067;-77
2021/04/03 04:36:55;;;;;;;14.77;11.15;;;8.50;99.90;;;;;;5113529;28;20058;-77
2021/04/03 04:39:21;;;;;;;16.10;11.32;;;8.90;99.90;;;;;;5113092;28;20118;-77
2021/04/03 04:41:46;;;;;;;14.43;11.43;;;8.50;99.90;;;;;;5104656;28;20472;-77
2021/04/03 04:44:12;;;;;;;17.85;11.77;;;8.90;99.90;;;;;;5093972;28;20099;-77
2021/04/03 04:46:38;;;;;;;15.23;12.05;;;8.60;99.90;;;;;;5093601;28;20089;-77
2021/04/03 04:49:03;;;;;;;15.68;11.60;;;8.40;99.90;;;;;;5092842;28;20143;-77
2021/04/03 04:51:29;;;;;;;16.17;12.65;;;8.30;99.90;;;;;;5111604;28;20035;-77
2021/04/03 04:53:55;;;;;;;16.25;12.52;;;8.60;99.90;;;;;;5112511;28;20030;-77
2021/04/03 04:56:20;;;;;;;17.00;12.55;;;8.30;99.90;;;;;;5101059;28;20028;-77
2021/04/03 04:58:46;;;;;;;17.52;12.38;;;8.30;99.90;;;;;;5105703;28;20028;-77
2021/04/03 05:01:11;;;;;;;17.77;13.48;;;8.20;99.90;;;;;;5093456;28;20491;-77
2021/04/03 05:03:37;;;;;;;16.52;12.63;;;8.20;99.90;;;;;;5093006;28;20024;-78
2021/04/03 05:06:03;;;;;;;18.10;13.80;;;8.20;99.90;;;;;;5092262;28;20549;-77
2021/04/03 05:08:28;;;;;;;16.55;13.35;;;8.20;99.90;;;;;;5095108;28;20098;-77
2021/04/03 05:10:54;;;;;;;18.70;13.23;;;8.20;99.90;;;;;;5095929;28;20404;-77
2021/04/03 05:13:19;;;;;;;18.33;12.68;;;8.40;99.90;;;;;;5092442;28;20031;-77
2021/04/03 05:15:45;;;;;;;19.98;13.60;;;8.00;99.90;;;;;;5092237;28;20032;-77
2021/04/03 05:18:10;;;;;;;19.80;14.38;;;7.90;99.90;;;;;;5092248;28;20024;-77
2021/04/03 05:20:36;;;;;;;19.55;14.85;;;7.80;99.90;;;;;;5092190;28;20052;-77
2021/04/03 05:23:02;;;;;;;25.25;15.15;;;7.80;99.90;;;;;;5092278;28;20024;-77
2021/04/03 05:25:27;;;;;;;21.15;14.85;;;7.80;99.90;;;;;;5085216;28;20055;-77
2021/04/03 05:27:53;;;;;;;20.05;14.85;;;7.80;99.90;;;;;;5096289;28;20039;-77
2021/04/03 05:30:19;;;;;;;21.30;15.20;;;7.90;99.90;;;;;;5096580;28;20036;-77
2021/04/03 05:32:45;;;;;;;25.38;15.43;;;7.90;99.90;;;;;;5094849;28;20052;-77
2021/04/03 05:35:11;;;;;;;22.67;16.35;;;7.80;99.90;;;;;;5094907;28;20059;-77
2021/04/03 05:37:37;;;;;;;25.08;16.00;;;7.70;99.90;;;;;;5095715;28;20013;-77
2021/04/03 05:40:03;;;;;;;26.33;16.40;;;7.70;99.90;;;;;;5094690;28;20515;-77
2021/04/03 05:42:33;;;;;;;21.00;15.40;;;7.70;99.90;;;;;;5095780;28;20360;-77
2021/04/03 05:45:02;;;;;;;23.23;16.15;;;8.20;99.90;;;;;;5095118;28;20020;-77
2021/04/03 05:47:29;;;;;;;23.95;16.80;;;7.50;99.90;;;;;;5094111;28;20016;-77
2021/04/03 05:49:55;;;;;;;27.67;16.48;;;7.60;99.90;;;;;;5093746;28;20016;-77
2021/04/03 05:52:21;;;;;;;24.45;16.60;;;7.70;99.90;;;;;;5094041;28;20511;-77
2021/04/03 05:54:47;;;;;;;24.88;16.85;;;8.00;99.90;;;;;;5112112;28;20023;-77
2021/04/03 05:57:12;;;;;;;28.02;17.02;;;7.50;99.90;;;;;;5114197;28;20024;-77
2021/04/03 05:59:38;;;;;;;24.67;16.58;;;7.90;99.90;;;;;;5116207;28;20034;-77
2021/04/03 06:02:05;;;;;;;24.90;16.55;;;7.50;99.90;;;;;;5115745;28;20019;-77
2021/04/03 06:04:30;;;;;;;25.98;16.88;;;7.60;99.90;;;;;;5116171;28;20579;-77
2021/04/03 06:06:57;;;;;;;26.60;17.42;;;7.50;99.90;;;;;;5115968;28;20094;-77
2021/04/03 06:09:22;;;;;;;24.92;16.90;;;7.60;99.90;;;;;;5115611;28;20054;-77
2021/04/03 06:11:49;;;;;;;25.98;16.92;;;7.80;99.90;;;;;;5115707;28;20023;-77
2021/04/03 06:14:17;;;;;;;26.00;15.82;;;7.50;99.90;;;;;;5115521;28;20023;-77
2021/04/03 06:16:44;;;;;;;24.42;16.00;;;7.70;99.90;;;;;;5075059;28;20116;-77
2021/04/03 06:19:13;;;;;;;29.63;17.13;;;7.70;99.90;;;;;;5074724;28;20037;-77
2021/04/03 06:21:40;;;;;;;23.92;15.93;;;7.90;99.90;;;;;;5079107;28;20032;-77
2021/04/03 06:24:30;;;;;;;27.05;16.00;;;7.60;99.90;;;;;;5094764;28;20036;-77
2021/04/03 06:26:57;;;;;;;24.77;16.77;;;7.50;99.90;;;;;;5092126;28;20036;-77
2021/04/03 06:29:27;;;;;;;25.65;17.02;;;7.60;99.90;;;;;;5096671;28;20092;-77
2021/04/03 06:31:54;;;;;;;23.27;15.48;;;7.60;99.90;;;;;;5115709;28;20433;-77
2021/04/03 06:34:40;;;;;;;23.90;15.82;;;7.60;99.90;;;;;;5115383;28;20024;-77
2021/04/03 06:37:09;;;;;;;25.20;16.23;;;7.80;99.90;;;;;;5114413;28;20019;-77
2021/04/03 06:39:54;;;;;;;26.05;16.08;;;7.90;99.90;;;;;;5113624;28;20392;-77
2021/04/03 06:42:43;;;;;;;24.08;16.08;;;7.80;99.90;;;;;;5115265;28;20088;-77
2021/04/03 06:45:18;;;;;;;25.23;15.98;;;7.80;99.90;;;;;;5100242;28;20106;-77
2021/04/03 06:47:46;;;;;;;21.70;14.80;;;8.00;99.90;;;;;;5094881;28;20020;-77
2021/04/03 06:50:14;;;;;;;26.88;16.05;;;8.00;99.90;;;;;;5094649;28;20028;-77
2021/04/03 06:52:41;;;;;;;20.80;14.35;;;8.00;99.90;;;;;;5094346;28;20477;-77
2021/04/03 06:55:11;;;;;;;23.75;15.80;;;8.30;99.90;;;;;;5094407;28;20062;-77
2021/04/03 06:57:40;;;;;;;25.27;15.05;;;8.30;99.90;;;;;;5093328;28;20396;-77
2021/04/03 07:00:06;;;;;;;23.02;14.73;;;8.30;99.90;;;;;;5111498;28;20030;-77
2021/04/03 07:02:38;;;;;;;24.92;15.20;;;8.70;99.90;;;;;;5114781;28;20061;-77
2021/04/03 07:05:05;;;;;;;24.10;14.73;;;8.60;99.90;;;;;;5114764;28;20055;-77
2021/04/03 07:07:34;;;;;;;25.00;15.60;;;8.40;99.90;;;;;;5114524;28;20011;-77
2021/04/03 07:10:01;;;;;;;22.63;14.30;;;8.20;99.90;;;;;;5114770;28;20033;-77
2021/04/03 07:12:28;;;;;;;24.83;14.82;;;8.30;99.90;;;;;;5114664;28;20024;-78
2021/04/03 07:14:54;;;;;;;25.90;16.05;;;8.50;99.90;;;;;;5098266;28;20036;-77
2021/04/03 07:17:22;;;;;;;23.60;14.93;;;8.40;99.90;;;;;;5093990;28;20023;-77
2021/04/03 07:19:48;;;;;;;21.80;15.07;;;8.60;99.90;;;;;;5093944;28;20131;-76
2021/04/03 07:22:15;;;;;;;22.25;15.05;;;8.80;99.90;;;;;;5093625;28;20023;-77
2021/04/03 07:24:41;;;;;;;22.58;15.20;;;9.00;99.90;;;;;;5094069;28;20032;-77
2021/04/03 07:27:08;;;;;;;26.00;16.17;;;8.70;99.90;;;;;;5093971;28;20053;-77
2021/04/03 07:29:50;;;;;;;22.35;15.05;;;8.80;99.90;;;;;;5113045;28;20050;-77
2021/04/03 07:32:47;;;;;;;21.60;14.90;;;9.30;99.90;;;;;;5114273;28;20024;-77
2021/04/03 07:35:15;;;;;;;21.15;13.73;;;9.20;99.90;;;;;;5114233;28;20023;-77
2021/04/03 07:37:41;;;;;;;20.65;14.85;;;9.30;99.90;;;;;;5114018;28;20030;-77
2021/04/03 07:40:11;;;;;;;23.10;13.73;;;9.60;99.90;;;;;;5114010;28;20091;-77
2021/04/03 07:42:38;;;;;;;24.70;15.57;;;9.40;99.90;;;;;;5113137;28;20378;-77
2021/04/03 07:45:29;;;;;;;21.80;14.75;;;9.30;99.90;;;;;;5114107;28;20047;-77
2021/04/03 07:47:55;;;;;;;23.13;14.65;;;9.40;99.90;;;;;;5113816;28;20055;-77
2021/04/03 07:50:42;;;;;;;23.25;15.02;;;9.60;99.90;;;;;;5113271;28;20055;-77
2021/04/03 07:53:09;;;;;;;21.02;13.77;;;9.20;99.90;;;;;;5113667;28;20080;-77
2021/04/03 07:55:42;;;;;;;22.27;15.05;;;9.70;99.90;;;;;;5113787;28;20031;-77
2021/04/03 07:58:32;;;;;;;21.35;15.05;;;9.70;99.90;;;;;;5102008;28;20032;-77
2021/04/03 08:01:03;;;;;;;22.17;15.05;;;10.30;99.90;;;;;;5093537;28;20055;-76
2021/04/03 08:03:30;;;;;;;21.80;15.10;;;10.10;99.90;;;;;;5093091;28;20480;-76
2021/04/03 08:06:09;;;;;;;20.58;14.25;;;10.20;99.90;;;;;;5093117;28;20032;-76
2021/04/03 08:08:39;;;;;;;23.58;15.40;;;10.30;99.90;;;;;;5093311;28;20488;-76
2021/04/03 08:11:09;;;;;;;20.88;14.73;;;10.20;99.90;;;;;;5092839;28;20203;-76
2021/04/03 08:13:41;;;;;;;20.67;14.45;;;10.30;99.90;;;;;;5099163;28;20026;-77
2021/04/03 08:16:09;;;;;;;22.75;15.98;;;10.20;99.90;;;;;;5113585;28;20015;-77
2021/04/03 08:18:36;;;;;;;24.77;15.82;;;10.10;99.90;;;;;;5113276;28;20016;-77
2021/04/03 08:21:02;;;;;;;19.30;14.40;;;10.50;99.90;;;;;;5113057;28;20081;-77
2021/04/03 08:23:37;;;;;;;23.63;15.35;;;10.70;99.90;;;;;;5093557;28;20105;-77
2021/04/03 08:26:04;;;;;;;20.17;14.30;;;10.60;99.90;;;;;;5092931;28;20027;-77
2021/04/03 08:28:31;;;;;;;22.95;15.65;;;10.80;99.90;;;;;;5104681;28;20023;-77
2021/04/03 08:30:57;;;;;;;23.08;15.57;;;10.90;99.90;;;;;;5113109;28;20023;-77
2021/04/03 08:33:23;;;;;;;22.23;14.70;;;10.90;99.90;;;;;;5112983;28;20028;-77
2021/04/03 08:35:50;;;;;;;23.58;16.13;;;11.40;99.90;;;;;;5111581;28;20437;-77
2021/04/03 08:38:24;;;;;;;18.80;14.88;;;11.30;99.90;;;;;;5113119;28;20019;-77
2021/04/03 08:40:52;;;;;;;20.45;15.60;;;11.60;99.90;;;;;;5113283;28;20028;-77
2021/04/03 08:43:23;;;;;;;21.02;15.57;;;11.40;99.90;;;;;;5100129;28;20391;-77
2021/04/03 08:45:50;;;;;;;19.45;14.90;;;12.10;99.90;;;;;;5092778;28;20400;-77
2021/04/03 08:48:16;;;;;;;21.70;16.08;;;11.90;99.90;;;;;;5092320;28;20036;-77
2021/04/03 08:50:46;;;;;;;21.85;15.68;;;11.30;99.90;;;;;;5092563;28;20070;-77
2021/04/03 08:53:11;;;;;;;22.35;15.82;;;11.00;99.90;;;;;;5092525;28;20103;-77
2021/04/03 08:55:37;;;;;;;24.05;16.45;;;11.40;99.90;;;;;;5092536;28;20070;-77
2021/04/03 08:58:04;;;;;;;23.25;16.08;;;11.60;99.90;;;;;;5103365;28;20020;-77
2021/04/03 09:00:31;;;;;;;20.75;15.82;;;12.10;99.90;;;;;;5111769;28;20388;-77
2021/04/03 09:02:57;;;;;;;23.55;16.55;;;12.00;99.90;;;;;;5112588;28;20050;-77
2021/04/03 09:05:23;;;;;;;20.70;15.18;;;12.20;99.90;;;;;;5112875;28;20031;-77
2021/04/03 09:07:50;;;;;;;22.50;17.25;;;12.70;99.90;;;;;;5112799;28;20030;-77
2021/04/03 09:10:18;;;;;;;22.55;16.77;;;12.80;99.90;;;;;;5112874;28;20043;-77
2021/04/03 09:12:45;;;;;;;23.30;17.60;;;12.60;99.90;;;;;;5100259;28;20039;-77
2021/04/03 09:15:13;;;;;;;28.92;18.50;;;12.70;99.90;;;;;;5092389;28;20020;-77
2021/04/03 09:17:49;;;;;;;31.10;18.75;;;12.60;99.90;;;;;;5091966;28;20073;-77
2021/04/03 09:20:20;;;;;;;26.63;20.00;;;12.70;99.90;;;;;;5092332;28;20131;-77
2021/04/03 09:22:48;;;;;;;26.98;18.10;;;12.40;99.90;;;;;;5092217;28;20032;-78
2021/04/03 09:25:19;;;;;;;23.42;17.33;;;12.80;99.90;;;;;;5092167;28;20023;-78
2021/04/03 09:27:57;;;;;;;22.92;17.67;;;12.90;99.90;;;;;;5092299;28;20024;-77
2021/04/03 09:30:33;;;;;;;23.63;17.40;;;13.90;99.90;;;;;;5091943;28;20093;-78
2021/04/03 09:33:17;;;;;;;21.63;17.10;;;13.20;99.90;;;;;;5091963;28;20029;-77
2021/04/03 09:35:43;;;;;;;22.77;16.27;;;12.90;99.90;;;;;;5101144;28;20535;-77
2021/04/03 09:38:09;;;;;;;23.50;17.67;;;13.80;99.90;;;;;;5112344;28;20073;-77
2021/04/03 09:40:45;;;;;;;24.65;17.88;;;14.10;99.90;;;;;;5112322;28;20048;-77
2021/04/03 09:43:13;;;;;;;22.25;17.50;;;14.30;99.90;;;;;;5112471;28;20290;-77
2021/04/03 09:45:39;;;;;;;23.10;17.75;;;13.90;99.90;;;;;;5112303;28;20031;-78
2021/04/03 09:48:07;;;;;;;24.55;18.02;;;13.90;99.90;;;;;;5112071;28;20019;-78
2021/04/03 09:50:33;;;;;;;23.77;17.27;;;14.10;99.90;;;;;;5100632;28;20174;-78
2021/04/03 09:53:09;;;;;;;22.02;16.20;;;13.90;99.90;;;;;;5091954;28;20544;-77
2021/04/03 09:55:35;;;;;;;22.90;17.10;;;14.50;99.90;;;;;;5091968;28;20476;-77
2021/04/03 09:58:01;;;;;;;23.92;17.33;;;15.30;99.90;;;;;;5091783;28;20372;-77
2021/04/03 10:00:27;;;;;;;25.33;18.60;;;16.80;99.90;;;;;;5091785;28;20024;-77
2021/04/03 10:02:52;;;;;;;29.70;20.40;;;18.30;99.90;;;;;;5091571;28;20012;-79
2021/04/03 10:05:18;;;;;;;22.08;18.73;;;18.00;99.90;;;;;;5090640;28;20103;-77
2021/04/03 10:07:44;;;;;;;25.25;19.00;;;16.70;99.90;;;;;;5091049;28;20027;-77
2021/04/03 10:10:09;;;;;;;24.13;18.80;;;17.60;99.90;;;;;;5091937;28;20506;-77
2021/04/03 10:12:35;;;;;;;25.73;19.75;;;22.80;99.90;;;;;;5093194;28;20016;-77
2021/04/03 10:15:00;;;;;;;24.20;19.08;;;20.70;99.90;;;;;;5094866;28;20035;-77
2021/04/03 10:17:26;;;;;;;24.10;18.50;;;17.50;99.90;;;;;;5094996;28;20099;-77
2021/04/03 10:19:52;;;;;;;22.63;18.50;;;16.10;99.90;;;;;;5107817;28;20521;-77
2021/04/03 10:22:17;;;;;;;26.63;19.77;;;18.00;99.90;;;;;;5097488;28;20047;-77
2021/04/03 10:24:43;;;;;;;25.15;18.50;;;18.90;99.90;;;;;;5094885;28;20032;-77
2021/04/03 10:27:09;;;;;;;26.13;19.45;;;16.40;99.90;;;;;;5094843;28;20078;-77
2021/04/03 10:29:34;;;;;;;21.45;17.35;;;19.80;99.90;;;;;;5094519;28;20035;-76
2021/04/03 10:32:00;;;;;;;22.90;18.55;;;21.60;99.90;;;;;;5094234;28;20449;-76
2021/04/03 10:34:25;;;;;;;26.27;18.58;;;19.30;99.90;;;;;;5093966;28;20516;-80
2021/04/03 10:36:51;;;;;;;21.70;19.00;;;19.00;99.90;;;;;;5107961;28;20024;-78
2021/04/03 10:39:17;;;;;;;24.73;18.23;;;18.00;99.90;;;;;;5095169;28;20032;-78
2021/04/03 10:41:42;;;;;;;23.15;18.48;;;18.20;99.90;;;;;;5094181;28;20028;-78
2021/04/03 10:44:08;;;;;;;22.27;18.95;;;19.10;99.90;;;;;;5094019;28;20028;-78
2021/04/03 10:46:34;;;;;;;22.58;17.73;;;17.90;99.90;;;;;;5094143;28;20026;-78
2021/04/03 10:48:59;;;;;;;24.02;18.10;;;16.90;99.90;;;;;;5094926;28;20054;-79
2021/04/03 10:51:25;;;;;;;21.42;17.85;;;17.50;99.90;;;;;;5094313;28;20026;-79
2021/04/03 10:53:51;;;;;;;22.75;17.73;;;22.00;99.90;;;;;;5094085;28;20024;-77
2021/04/03 10:56:18;;;;;;;23.52;18.92;;;23.20;99.90;;;;;;5094345;28;20452;-78
2021/04/03 10:58:45;;;;;;;23.35;17.65;;;21.40;99.90;;;;;;5094354;28;20365;-79
2021/04/03 11:01:11;;;;;;;23.13;19.23;;;25.60;99.90;;;;;;5092916;28;20027;-79
2021/04/03 11:03:36;;;;;;;22.63;19.58;;;23.80;99.90;;;;;;5100102;28;20020;-79
2021/04/03 11:06:02;;;;;;;27.27;20.70;;;24.60;99.90;;;;;;5096797;28;20031;-79
2021/04/03 11:08:29;;;;;;;22.75;19.77;;;20.70;99.90;;;;;;5093866;28;20111;-79
2021/04/03 11:10:55;;;;;;;20.50;18.25;;;18.80;99.90;;;;;;5094107;28;20076;-79
2021/04/03 11:13:20;;;;;;;19.77;17.25;;;24.00;99.90;;;;;;5093634;28;20033;-79
2021/04/03 11:15:47;;;;;;;22.83;18.83;;;25.60;99.90;;;;;;5094835;28;20365;-80
2021/04/03 11:18:13;;;;;;;22.25;18.95;;;25.90;99.90;;;;;;5092775;28;20028;-79
2021/04/03 11:20:38;;;;;;;22.08;17.48;;;29.30;99.90;;;;;;5093146;28;20044;-77
2021/04/03 11:23:04;;;;;;;20.58;18.27;;;29.70;99.90;;;;;;5092705;28;20024;-77
2021/04/03 11:25:30;;;;;;;19.92;17.77;;;28.00;99.90;;;;;;5092910;28;20020;-81
2021/04/03 11:27:56;;;;;;;22.58;20.13;;;29.80;99.90;;;;;;5093504;28;20036;-81
2021/04/03 11:30:22;;;;;;;23.20;19.60;;;30.20;99.90;;;;;;5094085;28;20034;-79
2021/04/03 11:32:49;;;;;;;20.13;17.92;;;31.20;99.90;;;;;;5093810;28;20055;-79
2021/04/03 11:35:18;;;;;;;21.33;18.23;;;28.50;99.90;;;;;;5093784;28;20020;-79
2021/04/03 11:37:45;;;;;;;21.08;18.88;;;25.50;99.90;;;;;;5093730;28;20020;-79
2021/04/03 11:40:11;;;;;;;19.55;17.40;;;24.70;99.90;;;;;;5095610;28;20039;-81
2021/04/03 11:42:37;;;;;;;20.17;17.17;;;22.20;99.90;;;;;;5113689;28;20035;-79
2021/04/03 11:45:06;;;;;;;18.52;16.13;;;26.70;99.90;;;;;;5112766;28;20423;-79
2021/04/03 11:47:32;;;;;;;18.70;16.60;;;29.20;99.90;;;;;;5114013;28;20023;-79
2021/04/03 11:49:58;;;;;;;23.65;19.95;;;29.10;99.90;;;;;;5113901;28;20019;-79
2021/04/03 11:52:25;;;;;;;18.90;16.88;;;27.60;99.90;;;;;;5113944;27;20023;-79
2021/04/03 11:54:51;;;;;;;18.73;16.50;;;26.50;99.90;;;;;;5110952;28;20020;-79
2021/04/03 11:57:17;;;;;;;18.58;16.17;;;27.20;99.90;;;;;;5093009;28;20442;-79
2021/04/03 11:59:44;;;;;;;17.95;16.08;;;26.90;99.90;;;;;;5093396;28;20024;-79
2021/04/03 12:02:10;;;;;;;18.17;16.27;;;29.50;99.90;;;;;;5093361;28;20077;-79
2021/04/03 12:04:35;;;;;;;19.58;14.68;;;29.60;99.90;;;;;;5093181;28;20024;-79
2021/04/03 12:07:01;;;;;;;18.08;16.23;;;27.10;99.90;;;;;;5093235;28;20032;-79
2021/04/03 12:09:27;;;;;;;18.52;14.93;;;28.60;99.90;;;;;;5094048;28;20032;-79
2021/04/03 12:11:53;;;;;;;17.88;15.13;;;29.40;99.90;;;;;;5113149;28;20023;-79
2021/04/03 12:14:18;;;;;;;15.55;13.95;;;30.50;99.90;;;;;;5113580;28;20068;-79
2021/04/03 12:16:44;;;;;;;16.83;15.02;;;31.40;99.90;;;;;;5113291;28;20099;-79
2021/04/03 12:19:10;;;;;;;15.15;13.57;;;29.70;99.90;;;;;;5112316;28;20377;-79
2021/04/03 12:21:35;;;;;;;14.95;13.52;;;30.90;99.90;;;;;;5096053;28;20043;-79
2021/04/03 12:24:01;;;;;;;14.88;13.38;;;29.60;99.90;;;;;;5092817;28;20473;-79
2021/04/03 12:26:27;;;;;;;33.20;15.95;;;29.40;99.90;;;;;;5092725;28;20032;-79
2021/04/03 12:28:52;;;;;;;15.02;13.10;;;29.80;99.90;;;;;;5092852;28;20035;-79
2021/04/03 12:31:18;;;;;;;17.33;14.25;;;29.80;99.90;;;;;;5092922;28;20028;-79
2021/04/03 12:33:43;;;;;;;17.95;15.15;;;29.10;99.90;;;;;;5092751;28;20048;-79
2021/04/03 12:36:09;;;;;;;16.45;14.75;;;28.70;99.90;;;;;;5092624;28;20025;-79
2021/04/03 12:38:36;;;;;;;14.35;12.95;;;27.80;99.90;;;;;;5092574;28;20016;-79